createdAt,value
2016-01-28T00:00:13.337Z,66.9
2016-01-28T00:01:13.278Z,66.4
2016-01-28T00:02:13.234Z,66.6
2016-01-28T00:03:13.175Z,66.7
2016-01-28T00:04:13.114Z,67.1
2016-01-28T00:05:13.069Z,67.8
2016-01-28T00:06:13.026Z,67.6
2016-01-28T00:07:12.966Z,67.5
2016-01-28T00:08:12.905Z,67.7
2016-01-28T00:09:12.878Z,67.7
2016-01-28T00:10:12.802Z,67.5
2016-01-28T00:11:12.758Z,67.7
2016-01-28T00:12:12.699Z,67.7
2016-01-28T00:13:12.654Z,67.4
2016-01-28T00:14:12.594Z,67.8
2016-01-28T00:15:12.534Z,67.9
2016-01-28T00:16:12.486Z,68.5
2016-01-28T00:17:11.692Z,68.5
2016-01-28T00:18:12.382Z,68.8
2016-01-28T00:19:12.326Z,68.7
2016-01-28T00:20:12.501Z,68.7
2016-01-28T00:21:12.222Z,69.1
2016-01-28T00:22:12.179Z,68.9
2016-01-28T00:23:12.118Z,69.5
2016-01-28T00:24:12.074Z,69.7
2016-01-28T00:25:11.999Z,69.8
2016-01-28T00:26:11.954Z,70
2016-01-28T00:27:11.895Z,69.7
2016-01-28T00:28:11.850Z,69.7
2016-01-28T00:29:11.791Z,70.2
2016-01-28T00:30:11.748Z,70.4
2016-01-28T00:31:11.704Z,70.2
2016-01-28T00:32:11.644Z,70.4
2016-01-28T00:33:11.602Z,70.4
2016-01-28T00:34:11.526Z,71
2016-01-28T00:35:11.482Z,71.8
2016-01-28T00:36:11.426Z,72.4
2016-01-28T00:37:11.382Z,72.2
2016-01-28T00:38:11.321Z,72.4
2016-01-28T00:39:11.277Z,72.7
2016-01-28T00:40:11.220Z,72.7
2016-01-28T00:41:11.175Z,72.9
2016-01-28T00:42:11.132Z,73.4
2016-01-28T00:43:11.056Z,74.1
2016-01-28T00:44:10.996Z,74.2
2016-01-28T00:45:10.959Z,74.5
2016-01-28T00:46:10.901Z,74.4
2016-01-28T00:47:10.841Z,74.1
2016-01-28T00:48:10.645Z,74.1
2016-01-28T00:49:10.743Z,74.1
2016-01-28T00:50:10.682Z,74.6
2016-01-28T00:51:10.623Z,75.1
2016-01-28T00:52:10.579Z,75.4
2016-01-28T00:53:10.519Z,75.8
2016-01-28T00:54:10.475Z,75.7
2016-01-28T00:55:10.415Z,76.1
2016-01-28T00:56:10.372Z,76.1
2016-01-28T00:57:10.313Z,75.5
2016-01-28T00:58:10.269Z,75.7
2016-01-28T00:59:10.210Z,75.6
2016-01-28T01:00:10.166Z,75.9
2016-01-28T01:01:10.122Z,76.1
2016-01-28T01:02:10.062Z,76.1
2016-01-28T01:03:10.003Z,76.5
2016-01-28T01:04:09.943Z,76.7
2016-01-28T01:05:09.883Z,76.6
2016-01-28T01:06:09.683Z,76.4
2016-01-28T01:07:09.784Z,76.3
2016-01-28T01:08:09.740Z,76.3
2016-01-28T01:09:09.681Z,76.3
2016-01-28T01:10:09.636Z,76.3
2016-01-28T01:11:09.577Z,76.6
2016-01-28T01:12:09.518Z,76.5
2016-01-28T01:13:09.474Z,76.5
2016-01-28T01:14:09.413Z,76.3
2016-01-28T01:15:09.373Z,76.2
2016-01-28T01:16:09.321Z,76.1
2016-01-28T01:17:09.278Z,76.9
2016-01-28T01:18:09.206Z,77
2016-01-28T01:19:09.145Z,77.1
2016-01-28T01:20:09.101Z,77.1
2016-01-28T01:21:09.056Z,77.3
2016-01-28T01:22:08.997Z,77.3
2016-01-28T01:23:08.953Z,77
2016-01-28T01:24:08.893Z,77.1
2016-01-28T01:25:08.833Z,77.3
2016-01-28T01:26:08.788Z,77.4
2016-01-28T01:27:08.729Z,77.1
2016-01-28T01:28:08.686Z,76.7
2016-01-28T01:29:08.611Z,77
2016-01-28T01:30:08.572Z,77.7
2016-01-28T01:31:08.527Z,77.5
2016-01-28T01:32:08.467Z,77.6
2016-01-28T01:33:07.688Z,77.9
2016-01-28T01:34:08.363Z,78
2016-01-28T01:35:08.303Z,78.2
2016-01-28T01:36:08.243Z,78
2016-01-28T01:37:08.199Z,78.5
2016-01-28T01:38:08.155Z,78.9
2016-01-28T01:39:08.096Z,79.1
2016-01-28T01:40:08.038Z,78.9
2016-01-28T01:41:07.993Z,79.2
2016-01-28T01:42:07.934Z,79
2016-01-28T01:43:07.877Z,79.5
2016-01-28T01:44:07.817Z,79.8
2016-01-28T01:45:07.773Z,80
2016-01-28T01:46:07.729Z,79.9
2016-01-28T01:47:07.668Z,80.2
2016-01-28T01:48:07.603Z,80.2
2016-01-28T01:49:07.560Z,80.4
2016-01-28T01:50:07.501Z,80.7
2016-01-28T01:51:07.442Z,80.3
2016-01-28T01:52:07.414Z,80.5
2016-01-28T01:53:07.354Z,80.9
2016-01-28T01:54:07.373Z,81.5
2016-01-28T01:55:07.236Z,81.8
2016-01-28T01:56:07.192Z,81.7
2016-01-28T01:57:07.133Z,81.9
2016-01-28T01:58:07.088Z,81.9
2016-01-28T01:59:07.030Z,82.1
2016-01-28T02:00:06.987Z,82
2016-01-28T02:01:06.927Z,82.1
2016-01-28T02:02:06.869Z,82.1
2016-01-28T02:03:06.824Z,81.8
2016-01-28T02:04:06.764Z,82
2016-01-28T02:05:06.705Z,82.6
2016-01-28T02:06:06.661Z,82.7
2016-01-28T02:07:06.601Z,82.4
2016-01-28T02:08:06.556Z,82.8
2016-01-28T02:09:06.513Z,82.8
2016-01-28T02:10:06.438Z,83
2016-01-28T02:11:06.628Z,83.1
2016-01-28T02:12:06.350Z,83.3
2016-01-28T02:13:06.290Z,83.2
2016-01-28T02:14:06.246Z,83.2
2016-01-28T02:15:06.171Z,83.3
2016-01-28T02:16:06.127Z,83.4
2016-01-28T02:17:06.083Z,83.2
2016-01-28T02:18:06.041Z,83.1
2016-01-28T02:19:05.981Z,83.7
2016-01-28T02:20:05.912Z,83.9
2016-01-28T02:21:05.868Z,84.2
2016-01-28T02:22:05.826Z,84.5
2016-01-28T02:23:05.766Z,84.6
2016-01-28T02:24:05.707Z,85
2016-01-28T02:25:05.666Z,85.3
2016-01-28T02:26:05.606Z,85.2
2016-01-28T02:27:05.578Z,85.1
2016-01-28T02:28:05.502Z,84.9
2016-01-28T02:29:05.443Z,84.9
2016-01-28T02:30:05.399Z,84.7
2016-01-28T02:31:05.339Z,85
2016-01-28T02:32:05.295Z,84.8
2016-01-28T02:33:05.238Z,84.8
2016-01-28T02:34:05.178Z,83.8
2016-01-28T02:35:05.134Z,83.8
2016-01-28T02:36:05.089Z,83.2
2016-01-28T02:37:05.014Z,83.5
2016-01-28T02:38:04.970Z,83.2
2016-01-28T02:39:04.911Z,83.6
2016-01-28T02:40:04.883Z,83.6
2016-01-28T02:41:04.823Z,83.6
2016-01-28T02:42:04.764Z,83.6
2016-01-28T02:43:04.704Z,83.1
2016-01-28T02:44:04.659Z,83.2
2016-01-28T02:45:04.602Z,83.1
2016-01-28T02:46:04.823Z,83
2016-01-28T02:47:04.497Z,82.9
2016-01-28T02:48:04.439Z,82.8
2016-01-28T02:49:04.394Z,82.6
2016-01-28T02:50:04.334Z,82
2016-01-28T02:51:04.293Z,81.7
2016-01-28T02:52:04.280Z,80.8
2016-01-28T02:53:04.173Z,81
2016-01-28T02:54:04.130Z,81.1
2016-01-28T02:55:04.085Z,81.2
2016-01-28T02:56:04.026Z,81.4
2016-01-28T02:57:03.981Z,80.8
2016-01-28T02:58:03.925Z,80.9
2016-01-28T02:59:03.865Z,81.3
2016-01-28T03:00:03.805Z,81.4
2016-01-28T03:01:03.761Z,81.6
2016-01-28T03:02:02.968Z,81.4
2016-01-28T03:03:03.601Z,81.7
2016-01-28T03:04:03.620Z,81.8
2016-01-28T03:05:03.544Z,82
2016-01-28T03:06:03.718Z,82.1
2016-01-28T03:07:03.440Z,82.4
2016-01-28T03:08:03.396Z,82.4
2016-01-28T03:09:03.336Z,82.5
2016-01-28T03:10:03.293Z,82.5
2016-01-28T03:11:03.232Z,82.8
2016-01-28T03:12:03.188Z,82.7
2016-01-28T03:13:03.129Z,83
2016-01-28T03:14:03.319Z,83.1
2016-01-28T03:15:03.024Z,83.3
2016-01-28T03:16:02.981Z,83.6
2016-01-28T03:17:02.916Z,83.7
2016-01-28T03:18:02.872Z,83.6
2016-01-28T03:19:03.063Z,83.7
2016-01-28T03:20:02.756Z,83.1
2016-01-28T03:21:02.716Z,83.1
2016-01-28T03:22:02.688Z,83.7
2016-01-28T03:23:02.629Z,83.4
2016-01-28T03:24:02.554Z,83.9
2016-01-28T03:25:02.495Z,84.4
2016-01-28T03:26:02.434Z,84.5
2016-01-28T03:27:02.390Z,84.7
2016-01-28T03:28:02.347Z,84.8
2016-01-28T03:29:02.288Z,85.4
2016-01-28T03:30:02.260Z,85.9
2016-01-28T03:31:02.184Z,85.4
2016-01-28T03:32:02.155Z,85.3
2016-01-28T03:33:02.086Z,85.1
2016-01-28T03:34:02.041Z,85.5
2016-01-28T03:35:01.982Z,85.7
2016-01-28T03:36:01.923Z,86.1
2016-01-28T03:37:01.863Z,85.9
2016-01-28T03:38:01.835Z,85.7
2016-01-28T03:39:01.775Z,85.6
2016-01-28T03:40:01.717Z,85.6
2016-01-28T03:41:01.659Z,85.8
2016-01-28T03:42:01.615Z,86
2016-01-28T03:43:01.570Z,86
2016-01-28T03:44:01.730Z,86.3
2016-01-28T03:45:01.452Z,86.3
2016-01-28T03:46:01.642Z,86.3
2016-01-28T03:47:01.363Z,86.4
2016-01-28T03:48:01.305Z,86.7
2016-01-28T03:49:01.245Z,86.8
2016-01-28T03:50:01.202Z,87.3
2016-01-28T03:51:01.391Z,87.1
2016-01-28T03:52:01.093Z,87.1
2016-01-28T03:53:01.033Z,87.4
2016-01-28T03:54:00.990Z,87.6
2016-01-28T03:55:00.946Z,87.4
2016-01-28T03:56:00.887Z,88
2016-01-28T03:57:00.828Z,88.3
2016-01-28T03:58:00.784Z,88.3
2016-01-28T03:59:00.725Z,88.3
2016-01-28T04:00:00.680Z,88.4
2016-01-28T04:01:00.620Z,88.8
2016-01-28T04:02:00.561Z,89.3
2016-01-28T04:03:00.517Z,89.6
2016-01-28T04:04:00.489Z,89.3
2016-01-28T04:05:00.428Z,89.5
2016-01-28T04:06:00.369Z,89.4
2016-01-28T04:07:00.308Z,89.6
2016-01-28T04:08:00.264Z,87.9
2016-01-28T04:09:00.205Z,87.5
2016-01-28T04:10:00.144Z,87.7
2016-01-28T04:11:00.100Z,86.8
2016-01-28T04:12:00.041Z,86.8
2016-01-28T04:12:59.997Z,87.4
2016-01-28T04:13:59.937Z,86.9
2016-01-28T04:14:59.879Z,87.2
2016-01-28T04:15:59.834Z,87.5
2016-01-28T04:16:59.790Z,87.8
2016-01-28T04:17:59.731Z,88
2016-01-28T04:18:59.687Z,87.9
2016-01-28T04:19:59.626Z,88.1
2016-01-28T04:20:59.567Z,87.8
2016-01-28T04:21:59.523Z,87.9
2016-01-28T04:22:59.463Z,88.1
2016-01-28T04:23:59.413Z,88
2016-01-28T04:24:59.369Z,88.1
2016-01-28T04:25:59.309Z,88.5
2016-01-28T04:26:59.280Z,87.8
2016-01-28T04:27:59.424Z,88.4
2016-01-28T04:28:59.145Z,89.1
2016-01-28T04:29:59.085Z,89.3
2016-01-28T04:30:59.041Z,89.8
2016-01-28T04:31:58.997Z,89.8
2016-01-28T04:32:58.938Z,90.3
2016-01-28T04:33:58.893Z,90.2
2016-01-28T04:34:58.833Z,90.5
2016-01-28T04:35:58.775Z,90.7
2016-01-28T04:36:58.714Z,91.1
2016-01-28T04:37:58.670Z,91.2
2016-01-28T04:38:58.610Z,91.8
2016-01-28T04:39:58.567Z,91.9
2016-01-28T04:40:58.507Z,92
2016-01-28T04:41:58.448Z,92.4
2016-01-28T04:42:58.388Z,92.6
2016-01-28T04:43:58.345Z,92.8
2016-01-28T04:44:58.301Z,93.3
2016-01-28T04:45:58.241Z,93.9
2016-01-28T04:46:58.196Z,94.3
2016-01-28T04:47:58.153Z,94.2
2016-01-28T04:48:58.078Z,94
2016-01-28T04:49:58.033Z,94.1
2016-01-28T04:50:57.819Z,94.1
2016-01-28T04:51:57.931Z,94
2016-01-28T04:52:57.871Z,94.4
2016-01-28T04:53:57.827Z,94.6
2016-01-28T04:54:57.770Z,93.5
2016-01-28T04:55:57.711Z,92.8
2016-01-28T04:56:57.651Z,92.7
2016-01-28T04:57:57.637Z,92.5
2016-01-28T04:58:57.567Z,92.3
2016-01-28T04:59:57.508Z,92.3
2016-01-28T05:00:57.447Z,92.6
2016-01-28T05:01:57.403Z,92.5
2016-01-28T05:02:57.345Z,92.4
2016-01-28T05:03:57.284Z,92.6
2016-01-28T05:04:57.240Z,91.8
2016-01-28T05:05:57.181Z,91.2
2016-01-28T05:06:57.139Z,91.6
2016-01-28T05:07:57.079Z,92.6
2016-01-28T05:08:57.020Z,95
2016-01-28T05:09:56.976Z,99.3
2016-01-28T05:10:56.933Z,99.9
2016-01-28T05:11:56.716Z,99.9
2016-01-28T05:12:56.813Z,99.9
2016-01-28T05:13:56.754Z,99.9
2016-01-28T05:14:56.712Z,99.9
2016-01-28T05:15:56.652Z,99.9
2016-01-28T05:16:56.640Z,99.9
2016-01-28T05:17:56.582Z,99.9
2016-01-28T05:18:56.491Z,99.9
2016-01-28T05:19:56.432Z,99.9
2016-01-28T05:20:56.387Z,99.9
2016-01-28T05:21:56.360Z,99.9
2016-01-28T05:22:56.266Z,99.9
2016-01-28T05:23:56.212Z,99.9
2016-01-28T05:24:55.984Z,99.9
2016-01-28T05:25:56.076Z,99.9
2016-01-28T05:26:56.021Z,99.9
2016-01-28T05:28:37.217Z,99.9
2016-01-28T05:29:37.172Z,99.9
2016-01-28T05:30:37.092Z,99.9
2016-01-28T05:31:37.044Z,99.9
2016-01-28T05:32:36.980Z,99.9
2016-01-28T05:33:36.934Z,99.9
2016-01-28T05:34:36.872Z,99.9
2016-01-28T05:36:51.348Z,99.9
2016-01-28T05:37:50.947Z,99.9
2016-01-28T05:38:37.322Z,99.9
2016-01-28T05:39:51.529Z,99.9
2016-01-28T05:41:38.140Z,99.9
2016-01-28T05:42:36.455Z,99.9
2016-01-28T05:43:38.349Z,99.9
2016-01-28T05:44:50.933Z,99.9
2016-01-28T05:46:37.779Z,99.9
2016-01-28T05:47:50.335Z,99.9
2016-01-28T05:48:36.007Z,99.9
2016-01-28T05:49:36.119Z,99.9
2016-01-28T05:50:36.032Z,99.9
2016-01-28T05:51:36.019Z,99.9
2016-01-28T05:52:35.928Z,99.9
2016-01-28T05:54:37.841Z,99.9
2016-01-28T05:56:35.738Z,99.9
2016-01-28T06:00:35.514Z,99.9
2016-01-28T06:01:35.688Z,99.9
2016-01-28T06:02:35.427Z,99.9
2016-01-28T06:03:35.383Z,99.9
2016-01-28T06:04:35.298Z,99.9
2016-01-28T06:05:35.238Z,99.9
2016-01-28T06:06:35.183Z,99.9
2016-01-28T06:07:35.139Z,99.9
2016-01-28T06:08:35.079Z,99.9
2016-01-28T06:09:35.035Z,99.9
2016-01-28T06:10:34.976Z,99.9
2016-01-28T06:11:34.931Z,99.9
2016-01-28T06:12:34.873Z,99.9
2016-01-28T06:13:34.812Z,99.9
2016-01-28T06:14:34.757Z,99.9
2016-01-28T06:15:34.697Z,99.9
2016-01-28T06:16:34.652Z,99.9
2016-01-28T06:17:34.608Z,99.9
2016-01-28T06:18:34.550Z,99.9
2016-01-28T06:19:34.489Z,99.9
2016-01-28T06:20:34.430Z,99.9
2016-01-28T06:21:34.374Z,99.9
2016-01-28T06:22:34.336Z,99.9
2016-01-28T06:23:34.278Z,99.9
2016-01-28T06:24:34.218Z,99.9
2016-01-28T06:25:34.174Z,99.9
2016-01-28T06:26:34.115Z,99.9
2016-01-28T06:27:34.054Z,99.9
2016-01-28T06:28:33.995Z,99.9
2016-01-28T06:29:33.952Z,99.9
2016-01-28T06:30:33.891Z,99.9
2016-01-28T06:31:33.846Z,99.9
2016-01-28T06:32:33.787Z,99.9
2016-01-28T06:33:33.774Z,99.9
2016-01-28T06:34:33.902Z,99.9
2016-01-28T06:35:33.857Z,99.9
2016-01-28T06:36:33.579Z,99.9
2016-01-28T06:37:33.505Z,99.9
2016-01-28T06:38:33.460Z,99.9
2016-01-28T06:39:33.432Z,99.9
2016-01-28T06:40:33.357Z,99.9
2016-01-28T06:41:33.297Z,99.9
2016-01-28T06:42:33.238Z,99.9
2016-01-28T06:43:33.225Z,99.9
2016-01-28T06:44:33.119Z,99.9
2016-01-28T06:45:33.074Z,99.9
2016-01-28T06:46:33.013Z,99.9
2016-01-28T06:47:32.986Z,99.9
2016-01-28T06:48:32.917Z,99.9
2016-01-28T06:49:32.904Z,99.9
2016-01-28T06:50:32.813Z,99.9
2016-01-28T06:51:32.753Z,99.9
2016-01-28T06:52:32.694Z,99.9
2016-01-28T06:53:32.637Z,99.9
2016-01-28T06:54:32.593Z,99.9
2016-01-28T06:55:32.533Z,99.9
2016-01-28T06:56:32.488Z,99.9
2016-01-28T06:57:32.429Z,99.9
2016-01-28T06:58:32.603Z,99.9
2016-01-28T06:59:32.309Z,99.9
2016-01-28T07:00:32.265Z,99.9
2016-01-28T07:01:32.205Z,99.9
2016-01-28T07:02:32.149Z,99.9
2016-01-28T07:03:32.121Z,99.9
2016-01-28T07:04:32.045Z,99.9
2016-01-28T07:05:31.985Z,99.9
2016-01-28T07:06:31.941Z,99.9
2016-01-28T07:07:31.883Z,99.9
2016-01-28T07:08:31.822Z,99.9
2016-01-28T07:09:31.762Z,99.9
2016-01-28T07:10:31.736Z,99.9
2016-01-28T07:11:31.675Z,99.9
2016-01-28T07:12:31.834Z,99.9
2016-01-28T07:13:31.571Z,99.9
2016-01-28T07:14:31.500Z,99.9
2016-01-28T07:15:31.440Z,99.9
2016-01-28T07:16:31.631Z,99.9
2016-01-28T07:17:31.337Z,99.9
2016-01-28T07:18:31.292Z,99.9
2016-01-28T07:19:31.231Z,99.9
2016-01-28T07:20:31.173Z,99.9
2016-01-28T07:21:31.113Z,99.9
2016-01-28T07:22:31.069Z,99.9
2016-01-28T07:23:31.010Z,99.9
2016-01-28T07:24:30.949Z,99.9
2016-01-28T07:25:30.891Z,99.9
2016-01-28T07:26:30.846Z,99.9
2016-01-28T07:27:30.787Z,99.9
2016-01-28T07:28:30.790Z,99.9
2016-01-28T07:29:30.668Z,99.9
2016-01-28T07:30:30.625Z,99.9
2016-01-28T07:31:30.564Z,99.9
2016-01-28T07:32:30.520Z,99.9
2016-01-28T07:33:30.461Z,99.9
2016-01-28T07:34:30.402Z,99.9
2016-01-28T07:35:30.342Z,99.9
2016-01-28T07:36:30.298Z,99.9
2016-01-28T07:37:30.473Z,99.9
2016-01-28T07:38:30.179Z,99.9
2016-01-28T07:39:30.151Z,99.9
2016-01-28T07:40:30.090Z,99.9
2016-01-28T07:41:30.047Z,99.9
2016-01-28T07:42:29.972Z,99.9
2016-01-28T07:43:30.146Z,99.9
2016-01-28T07:44:29.852Z,99.9
2016-01-28T07:45:29.808Z,99.9
2016-01-28T07:46:29.763Z,99.9
2016-01-28T07:47:29.704Z,99.9
2016-01-28T07:48:29.644Z,99.9
2016-01-28T07:49:29.584Z,99.9
2016-01-28T07:50:29.540Z,99.9
2016-01-28T07:51:29.480Z,99.9
2016-01-28T07:52:29.422Z,99.9
2016-01-28T07:53:29.377Z,99.9
2016-01-28T07:54:29.326Z,99.9
2016-01-28T07:55:29.267Z,99.9
2016-01-28T07:56:29.209Z,99.9
2016-01-28T07:57:29.150Z,99.9
2016-01-28T07:58:29.090Z,99.9
2016-01-28T07:59:29.046Z,99.9
2016-01-28T08:00:28.987Z,99.9
2016-01-28T08:01:28.942Z,99.9
2016-01-28T08:02:28.883Z,99.9
2016-01-28T08:03:28.870Z,99.9
2016-01-28T08:04:28.766Z,99.9
2016-01-28T08:05:28.723Z,99.9
2016-01-28T08:06:28.662Z,99.9
2016-01-28T08:07:28.618Z,99.9
2016-01-28T08:08:28.591Z,99.9
2016-01-28T08:09:28.499Z,99.9
2016-01-28T08:10:28.440Z,99.9
2016-01-28T08:11:28.396Z,99.9
2016-01-28T08:12:28.322Z,99.9
2016-01-28T08:13:28.277Z,99.9
2016-01-28T08:14:28.216Z,99.9
2016-01-28T08:15:28.158Z,99.9
2016-01-28T08:16:28.113Z,99.9
2016-01-28T08:17:28.053Z,99.9
2016-01-28T08:18:28.012Z,99.9
2016-01-28T08:19:27.937Z,99.9
2016-01-28T08:20:27.909Z,99.9
2016-01-28T08:21:27.835Z,99.9
2016-01-28T08:22:27.794Z,99.9
2016-01-28T08:23:27.736Z,99.9
2016-01-28T08:24:27.676Z,99.9
2016-01-28T08:25:27.478Z,99.9
2016-01-28T08:26:27.573Z,99.9
2016-01-28T08:27:27.514Z,99.9
2016-01-28T08:28:27.298Z,99.9
2016-01-28T08:29:27.412Z,99.9
2016-01-28T08:30:27.352Z,99.9
2016-01-28T08:31:27.292Z,99.9
2016-01-28T08:32:27.249Z,99.9
2016-01-28T08:33:27.189Z,99.9
2016-01-28T08:34:27.144Z,99.9
2016-01-28T08:35:27.085Z,99.9
2016-01-28T08:36:27.025Z,99.9
2016-01-28T08:37:26.966Z,99.9
2016-01-28T08:38:26.921Z,99.9
2016-01-28T08:39:26.861Z,99.9
2016-01-28T08:40:26.817Z,99.9
2016-01-28T08:41:26.743Z,99.9
2016-01-28T08:42:26.699Z,99.9
2016-01-28T08:43:26.640Z,99.9
2016-01-28T08:44:26.579Z,99.9
2016-01-28T08:45:26.525Z,99.9
2016-01-28T08:46:26.480Z,99.9
2016-01-28T08:47:26.421Z,99.9
2016-01-28T08:48:26.392Z,88.1
2016-01-28T08:49:26.303Z,81.4
2016-01-28T08:50:26.278Z,79.7
2016-01-28T08:51:26.202Z,78.6
2016-01-28T08:52:26.143Z,78.1
2016-01-28T08:53:26.100Z,75.1
2016-01-28T08:54:26.039Z,73.2
2016-01-28T08:55:26.011Z,73.5
2016-01-28T08:56:25.936Z,73.5
2016-01-28T08:57:25.877Z,72.6
2016-01-28T08:58:25.832Z,71.6
2016-01-28T08:59:25.756Z,71.1
2016-01-28T09:00:25.717Z,74
2016-01-28T09:01:25.657Z,75.2
2016-01-28T09:02:25.597Z,75.6
2016-01-28T09:03:25.568Z,71.8
2016-01-28T09:04:25.495Z,71.6
2016-01-28T09:05:25.435Z,71.2
2016-01-28T09:06:25.375Z,71.4
2016-01-28T09:07:25.331Z,72.4
2016-01-28T09:08:25.272Z,71.2
2016-01-28T09:09:25.227Z,69.8
2016-01-28T09:10:25.200Z,71.7
2016-01-28T09:11:24.952Z,71.9
2016-01-28T09:12:25.053Z,69.4
2016-01-28T09:13:24.993Z,69.7
2016-01-28T09:14:24.934Z,70
2016-01-28T09:15:24.890Z,68.6
2016-01-28T09:16:24.831Z,69.5
2016-01-28T09:17:24.788Z,71.9
2016-01-28T09:18:24.727Z,72.1
2016-01-28T09:19:24.688Z,72.1
2016-01-28T09:20:24.608Z,70.7
2016-01-28T09:21:24.580Z,72.2
2016-01-28T09:22:24.537Z,71.2
2016-01-28T09:23:24.445Z,70
2016-01-28T09:24:24.402Z,69.5
2016-01-28T09:25:24.343Z,71.6
2016-01-28T09:26:24.282Z,72.5
2016-01-28T09:27:24.238Z,72.6
2016-01-28T09:28:24.179Z,71.8
2016-01-28T09:29:24.119Z,71.1
2016-01-28T09:30:24.061Z,72.8
2016-01-28T09:31:24.017Z,72.2
2016-01-28T09:32:23.957Z,71.6
2016-01-28T09:33:23.897Z,71.8
2016-01-28T09:34:23.837Z,69.4
2016-01-28T09:35:23.794Z,70.5
2016-01-28T09:36:23.733Z,70.2
2016-01-28T09:37:23.689Z,70.6
2016-01-28T09:38:23.630Z,69.5
2016-01-28T09:39:23.586Z,71.6
2016-01-28T09:40:23.541Z,68.9
2016-01-28T09:41:23.470Z,67.3
2016-01-28T09:42:23.410Z,68.5
2016-01-28T09:43:23.365Z,65.8
2016-01-28T09:44:23.306Z,66.8
2016-01-28T09:45:23.247Z,68.3
2016-01-28T09:46:23.218Z,70
2016-01-28T09:47:23.143Z,71.7
2016-01-28T09:48:23.115Z,69.7
2016-01-28T09:49:23.044Z,67.2
2016-01-28T09:50:23.213Z,66.5
2016-01-28T09:51:22.918Z,70
2016-01-28T09:52:22.875Z,73
2016-01-28T09:53:22.814Z,73.2
2016-01-28T09:54:22.769Z,71.2
2016-01-28T09:55:22.727Z,70.7
2016-01-28T09:56:22.670Z,71
2016-01-28T09:57:22.614Z,72.2
2016-01-28T09:58:22.539Z,73.4
2016-01-28T09:59:22.729Z,72.7
2016-01-28T10:00:22.435Z,71.1
2016-01-28T10:01:22.391Z,69.9
2016-01-28T10:02:22.566Z,71.2
2016-01-28T10:03:22.272Z,69.1
2016-01-28T10:04:22.310Z,69.9
2016-01-28T10:05:22.172Z,69.6
2016-01-28T10:06:22.112Z,68.6
2016-01-28T10:07:22.067Z,68.3
2016-01-28T10:08:22.016Z,66.8
2016-01-28T10:09:21.973Z,69.1
2016-01-28T10:10:21.944Z,68.2
2016-01-28T10:11:21.853Z,68.1
2016-01-28T10:12:21.798Z,66
2016-01-28T10:13:21.737Z,66.7
2016-01-28T10:14:21.677Z,66.6
2016-01-28T10:15:21.477Z,66.3
2016-01-28T10:16:21.575Z,66.2
2016-01-28T10:17:21.578Z,64.9
2016-01-28T10:18:21.472Z,63.9
2016-01-28T10:19:21.427Z,64.6
2016-01-28T10:20:21.369Z,66.3
2016-01-28T10:21:21.325Z,68.8
2016-01-28T10:22:21.242Z,67.5
2016-01-28T10:23:21.197Z,67
2016-01-28T10:24:21.373Z,64.2
2016-01-28T10:25:21.188Z,64.8
2016-01-28T10:26:21.035Z,64.8
2016-01-28T10:27:21.007Z,63.4
2016-01-28T10:28:20.918Z,64
2016-01-28T10:29:20.874Z,65.2
2016-01-28T10:30:20.830Z,65.8
2016-01-28T10:31:20.770Z,63.6
2016-01-28T10:32:20.711Z,62.3
2016-01-28T10:33:20.667Z,63.1
2016-01-28T10:34:20.591Z,64.4
2016-01-28T10:35:20.547Z,63.3
2016-01-28T10:36:20.488Z,61.2
2016-01-28T10:37:19.710Z,59.6
2016-01-28T10:38:20.399Z,58.6
2016-01-28T10:39:20.339Z,60.6
2016-01-28T10:40:20.281Z,60
2016-01-28T10:41:20.252Z,59.3
2016-01-28T10:42:20.177Z,61
2016-01-28T10:43:20.117Z,60.7
2016-01-28T10:44:20.073Z,63.2
2016-01-28T10:45:20.014Z,62.6
2016-01-28T10:46:19.970Z,64.3
2016-01-28T10:47:20.129Z,61.9
2016-01-28T10:48:19.866Z,60.7
2016-01-28T10:49:19.806Z,63.2
2016-01-28T10:50:19.762Z,59.9
2016-01-28T10:51:19.709Z,58.8
2016-01-28T10:52:19.633Z,58.7
2016-01-28T10:53:19.589Z,59.9
2016-01-28T10:54:19.529Z,61
2016-01-28T10:55:19.470Z,60.4
2016-01-28T10:56:19.426Z,61.2
2016-01-28T10:57:19.367Z,60.4
2016-01-28T10:58:19.308Z,60.6
2016-01-28T10:59:19.251Z,58.3
2016-01-28T11:00:19.191Z,58.2
2016-01-28T11:01:19.147Z,57.3
2016-01-28T11:02:19.103Z,58.2
2016-01-28T11:03:19.059Z,58
2016-01-28T11:04:18.983Z,56.9
2016-01-28T11:05:18.955Z,57.7
2016-01-28T11:06:18.880Z,57.6
2016-01-28T11:07:19.054Z,56.8
2016-01-28T11:08:18.776Z,56.2
2016-01-28T11:09:18.718Z,56.8
2016-01-28T11:10:18.673Z,55.9
2016-01-28T11:11:18.613Z,55
2016-01-28T11:12:18.787Z,56.1
2016-01-28T11:13:18.495Z,57.5
2016-01-28T11:14:18.466Z,56.7
2016-01-28T11:15:18.390Z,57.1
2016-01-28T11:16:18.331Z,58.7
2016-01-28T11:17:18.286Z,58.1
2016-01-28T11:18:18.242Z,58.5
2016-01-28T11:19:18.183Z,58
2016-01-28T11:20:18.123Z,58.7
2016-01-28T11:21:18.068Z,59.6
2016-01-28T11:22:18.023Z,59.5
2016-01-28T11:23:17.973Z,60.4
2016-01-28T11:24:17.898Z,59
2016-01-28T11:25:17.104Z,58.9
2016-01-28T11:26:17.794Z,57.8
2016-01-28T11:27:17.734Z,58.2
2016-01-28T11:28:17.676Z,58.6
2016-01-28T11:29:17.621Z,58.5
2016-01-28T11:30:17.578Z,57.3
2016-01-28T11:31:17.503Z,56.2
2016-01-28T11:32:17.464Z,56.2
2016-01-28T11:33:17.419Z,56.9
2016-01-28T11:34:17.360Z,57.4
2016-01-28T11:35:17.300Z,57.6
2016-01-28T11:36:17.242Z,57.4
2016-01-28T11:37:17.182Z,57.1
2016-01-28T11:38:17.122Z,56.9
2016-01-28T11:39:17.078Z,57.3
2016-01-28T11:40:17.021Z,57.2
2016-01-28T11:41:16.976Z,57.3
2016-01-28T11:42:16.917Z,57.1
2016-01-28T11:43:16.920Z,55.6
2016-01-28T11:44:16.797Z,54.6
2016-01-28T11:45:16.752Z,55.8
2016-01-28T11:46:16.693Z,55.6
2016-01-28T11:47:16.633Z,56
2016-01-28T11:48:16.592Z,55.7
2016-01-28T11:49:16.531Z,55.3
2016-01-28T11:50:16.489Z,55.5
2016-01-28T11:51:16.412Z,55
2016-01-28T11:52:16.868Z,54.7
2016-01-28T11:53:16.314Z,53.9
2016-01-28T11:54:16.256Z,54.9
2016-01-28T11:55:16.213Z,53.3
2016-01-28T11:56:16.173Z,54.2
2016-01-28T11:57:16.097Z,55
2016-01-28T11:58:16.038Z,55.1
2016-01-28T11:59:15.977Z,55.9
2016-01-28T12:00:15.935Z,55.9
2016-01-28T12:01:15.875Z,55.2
2016-01-28T12:02:15.831Z,55.2
2016-01-28T12:03:15.802Z,54.1
2016-01-28T12:04:15.715Z,51.1
2016-01-28T12:05:15.686Z,46.9
2016-01-28T12:06:15.611Z,46.1
2016-01-28T12:07:15.568Z,44.6
2016-01-28T12:08:15.523Z,43.2
2016-01-28T12:09:15.463Z,42.4
2016-01-28T12:10:15.498Z,42.3
2016-01-28T12:11:15.360Z,40.3
2016-01-28T12:12:15.316Z,39.2
2016-01-28T12:13:15.259Z,37
2016-01-28T12:14:15.199Z,37.2
2016-01-28T12:15:15.156Z,36.5
2016-01-28T12:16:15.111Z,36.9
2016-01-28T12:17:15.067Z,35.6
2016-01-28T12:18:15.007Z,35.1
2016-01-28T12:19:14.979Z,35.7
2016-01-28T12:20:14.919Z,35.2
2016-01-28T12:21:14.859Z,34.5
2016-01-28T12:22:14.807Z,37.5
2016-01-28T12:23:14.763Z,38.4
2016-01-28T12:24:14.938Z,38.5
2016-01-28T12:25:14.660Z,36.8
2016-01-28T12:26:14.615Z,36.8
2016-01-28T12:27:14.571Z,36.7
2016-01-28T12:28:14.510Z,35.9
2016-01-28T12:29:14.470Z,35.6
2016-01-28T12:30:14.426Z,34.3
2016-01-28T12:31:14.381Z,33.8
2016-01-28T12:32:14.321Z,33.7
2016-01-28T12:33:14.357Z,37.2
2016-01-28T12:34:14.235Z,39.3
2016-01-28T12:35:14.175Z,42.3
2016-01-28T12:36:14.130Z,44.6
2016-01-28T12:37:14.073Z,41.8
2016-01-28T12:38:14.029Z,38.7
2016-01-28T12:39:13.969Z,37.9
2016-01-28T12:40:13.925Z,41.2
2016-01-28T12:41:13.882Z,41.6
2016-01-28T12:42:13.823Z,43.9
2016-01-28T12:43:13.779Z,42.2
2016-01-28T12:44:13.720Z,41.5
2016-01-28T12:45:13.660Z,38.8
2016-01-28T12:46:13.615Z,34.7
2016-01-28T12:47:13.587Z,34.3
2016-01-28T12:48:13.527Z,34.5
2016-01-28T12:49:13.485Z,34.4
2016-01-28T12:50:13.442Z,33.5
2016-01-28T12:51:13.610Z,32.9
2016-01-28T12:52:13.347Z,31.5
2016-01-28T12:53:13.286Z,32.6
2016-01-28T12:54:13.259Z,32.2
2016-01-28T12:55:13.199Z,31
2016-01-28T12:56:13.155Z,30.9
2016-01-28T12:57:13.128Z,31.2
2016-01-28T12:58:12.895Z,32.9
2016-01-28T12:59:13.023Z,32.4
2016-01-28T13:00:12.949Z,32.3
2016-01-28T13:01:12.921Z,34.2
2016-01-28T13:02:12.861Z,34.8
2016-01-28T13:03:12.816Z,34.8
2016-01-28T13:04:12.774Z,35.4
2016-01-28T13:05:12.729Z,33.6
2016-01-28T13:06:11.966Z,33.8
2016-01-28T13:07:12.703Z,34.9
2016-01-28T13:08:12.566Z,33.5
2016-01-28T13:09:12.538Z,32.8
2016-01-28T13:10:12.477Z,31.4
2016-01-28T13:11:12.433Z,31.3
2016-01-28T13:12:12.389Z,33.5
2016-01-28T13:13:12.344Z,33.4
2016-01-28T13:14:12.285Z,31.4
2016-01-28T13:15:12.491Z,32.2
2016-01-28T13:16:12.197Z,31.2
2016-01-28T13:17:12.152Z,29.7
2016-01-28T13:18:12.110Z,29.6
2016-01-28T13:19:12.082Z,29.6
2016-01-28T13:20:12.024Z,29.4
2016-01-28T13:21:11.975Z,28.8
2016-01-28T13:22:11.916Z,31.2
2016-01-28T13:23:11.871Z,32.2
2016-01-28T13:24:11.813Z,34.2
2016-01-28T13:25:11.769Z,34.3
2016-01-28T13:26:11.725Z,34.1
2016-01-28T13:27:11.680Z,35.4
2016-01-28T13:28:11.635Z,34.1
2016-01-28T13:29:11.592Z,33.7